Terminal Aerodrome Forecast
Issued by NWS

Home | Current Version | Previous Version | Text Only | Print | Product List | Glossary On
Versions: 1 2 3 4 5 6 7 8 9 10 11 12 13 14
327
FTUS42 KTBW 242320
TAFPIE
TAF
KPIE 242320Z 2500/2524 23017G27KT P6SM BKN020 OVC050
     FM250300 23016G26KT P6SM VCSH SCT015 OVC025
     FM250900 25014G22KT P6SM SCT025 OVC050
     FM251100 27014G24KT P6SM SCT010 BKN035
     FM251600 28016G26KT P6SM SCT035 BKN050=

USA.gov is the U.S. government's official web portal to all federal, state and local government web resources and services.